Time;durP1;ratioP1;P1;durP2;ratioP2;P2;SDS_P1;SDS_P2;PMS_P1;PMS_P2;Temp;Humidity;BMP_temperature;BMP_pressure;BME280_temperature;BME280_humidity;BME280_pressure;Samples;Min_cycle;Max_cycle;Signal;HPM_P1;HPM_P2
2021/09/12 00:02:00;;;;;;;;;;;;;;;14.98;53.25;99548.28;5095430;28;858;-54
2021/09/12 00:04:26;;;;;;;;;;;;;;;14.92;53.68;99544.47;5095311;28;817;-54
2021/09/12 00:06:53;;;;;;;;;;;;;;;14.89;53.68;99550.91;5095488;28;1939;-54
2021/09/12 00:09:20;;;;;;;;;;;;;;;14.87;53.84;99545.81;5095246;28;900;-56
2021/09/12 00:11:46;;;;;;;;;;;;;;;14.83;54.04;99544.31;5095297;28;864;-54
2021/09/12 00:14:12;;;;;;;;;;;;;;;14.83;54.04;99547.91;5095228;28;901;-54
2021/09/12 00:16:38;;;;;;;;;;;;;;;14.80;54.00;99539.63;5095551;28;1037;-51
2021/09/12 00:19:05;;;;;;;;;;;;;;;14.77;54.19;99549.63;5095353;28;1275;-50
2021/09/12 00:21:31;;;;;;;;;;;;;;;14.76;54.15;99547.28;5095026;28;834;-53
2021/09/12 00:23:58;;;;;;;;;;;;;;;14.78;54.25;99551.19;5095197;28;908;-52
2021/09/12 00:26:25;;;;;;;;;;;;;;;14.87;53.90;99545.81;5094662;28;1913;-55
2021/09/12 00:28:53;;;;;;;;;;;;;;;14.95;53.82;99545.59;5094824;28;913;-55
2021/09/12 00:31:20;;;;;;;;;;;;;;;15.01;53.56;99549.41;5094781;28;854;-55
2021/09/12 00:33:47;;;;;;;;;;;;;;;15.06;53.42;99543.31;5095448;28;807;-53
2021/09/12 00:36:14;;;;;;;;;;;;;;;15.10;53.41;99538.41;5094948;28;857;-55
2021/09/12 00:38:40;;;;;;;;;;;;;;;15.14;53.50;99536.31;5094971;28;834;-54
2021/09/12 00:41:07;;;;;;;;;;;;;;;15.14;53.70;99527.19;5094624;28;893;-55
2021/09/12 00:43:34;;;;;;;;;;;;;;;15.11;53.78;99528.88;5094408;28;938;-55
2021/09/12 00:46:06;;;;;;;;;;;;;;;15.05;53.93;99530.63;5094491;28;2012;-55
2021/09/12 00:48:35;;;;;;;;;;;;;;;14.97;54.15;99540.38;5094333;28;926;-55
2021/09/12 00:51:03;;;;;;;;;;;;;;;14.79;54.59;99532.53;5094490;28;806;-55
2021/09/12 00:53:31;;;;;;;;;;;;;;;14.67;54.90;99539.56;5094061;28;881;-54
2021/09/12 00:56:00;;;;;;;;;;;;;;;14.52;55.28;99538.34;5094065;28;949;-55
2021/09/12 00:58:29;;;;;;;;;;;;;;;14.48;55.35;99541.97;5076008;28;2304;-54
2021/09/12 01:00:56;;;;;;;;;;;;;;;14.45;55.43;99539.31;5094279;28;893;-56
2021/09/12 01:03:23;;;;;;;;;;;;;;;14.44;55.64;99540.50;5094182;28;948;-55
2021/09/12 01:05:50;;;;;;;;;;;;;;;14.41;55.79;99544.94;5076113;28;1886;-55
2021/09/12 01:08:17;;;;;;;;;;;;;;;14.37;55.90;99547.03;5094091;28;857;-54
2021/09/12 01:10:44;;;;;;;;;;;;;;;14.28;56.11;99544.09;5093961;28;911;-54
2021/09/12 01:13:10;;;;;;;;;;;;;;;14.19;56.18;99533.56;5094300;28;889;-54
2021/09/12 01:15:37;;;;;;;;;;;;;;;14.06;56.73;99536.25;5093899;28;909;-55
2021/09/12 01:18:04;;;;;;;;;;;;;;;13.93;56.92;99537.34;5093591;28;1752;-53
2021/09/12 01:20:31;;;;;;;;;;;;;;;13.84;57.14;99537.94;5093849;28;834;-54
2021/09/12 01:22:57;;;;;;;;;;;;;;;13.78;57.36;99532.13;5093808;28;814;-54
2021/09/12 01:25:24;;;;;;;;;;;;;;;13.78;57.59;99532.13;5093507;28;1933;-55
2021/09/12 01:27:50;;;;;;;;;;;;;;;13.76;57.73;99533.75;5093776;28;932;-54
2021/09/12 01:30:17;;;;;;;;;;;;;;;13.79;57.68;99527.38;5093735;28;833;-54
2021/09/12 01:32:44;;;;;;;;;;;;;;;13.84;57.70;99529.63;5075688;28;900;-55
2021/09/12 01:35:11;;;;;;;;;;;;;;;13.78;57.91;99528.56;5093503;28;894;-54
2021/09/12 01:37:36;;;;;;;;;;;;;;;13.75;57.98;99524.66;5093711;28;838;-54
2021/09/12 01:40:03;;;;;;;;;;;;;;;13.78;57.80;99528.56;5093485;28;874;-54
2021/09/12 01:42:30;;;;;;;;;;;;;;;13.74;58.15;99533.41;5093429;28;1127;-55
2021/09/12 01:44:57;;;;;;;;;;;;;;;13.67;58.22;99537.91;5093396;28;1889;-55
2021/09/12 01:47:24;;;;;;;;;;;;;;;13.56;59.03;99540.13;5093454;28;831;-55
2021/09/12 01:49:50;;;;;;;;;;;;;;;13.51;58.94;99540.66;5075160;28;1176;-55
2021/09/12 01:52:17;;;;;;;;;;;;;;;13.47;59.23;99534.41;5093343;28;806;-55
2021/09/12 01:54:43;;;;;;;;;;;;;;;13.48;59.24;99538.72;5093172;28;1153;-54
2021/09/12 01:57:10;;;;;;;;;;;;;;;13.46;59.25;99536.41;5093212;28;897;-55
2021/09/12 01:59:37;;;;;;;;;;;;;;;13.48;59.23;99535.94;5093249;28;822;-54
2021/09/12 02:02:03;;;;;;;;;;;;;;;13.52;59.32;99536.66;5093057;28;822;-55
2021/09/12 02:04:29;;;;;;;;;;;;;;;13.56;59.18;99534.59;5093040;28;572;-52
2021/09/12 02:06:56;;;;;;;;;;;;;;;13.55;59.41;99541.38;5092202;28;1977;-54
2021/09/12 02:09:26;;;;;;;;;;;;;;;13.64;59.24;99536.00;5092877;28;830;-53
2021/09/12 02:11:56;;;;;;;;;;;;;;;13.84;58.82;99540.72;5092697;28;1200;-56
2021/09/12 02:14:22;;;;;;;;;;;;;;;13.94;58.36;99536.94;5092927;28;854;-53
2021/09/12 02:16:49;;;;;;;;;;;;;;;13.93;58.49;99538.13;5092985;28;1051;-55
2021/09/12 02:19:16;;;;;;;;;;;;;;;13.89;58.45;99543.00;5092569;28;1271;-55
2021/09/12 02:21:42;;;;;;;;;;;;;;;13.80;58.92;99549.13;5092708;28;822;-54
2021/09/12 02:24:08;;;;;;;;;;;;;;;13.78;58.77;99542.44;5092572;28;818;-54
2021/09/12 02:26:35;;;;;;;;;;;;;;;13.88;58.81;99550.53;5092455;28;1913;-55
2021/09/12 02:29:02;;;;;;;;;;;;;;;14.02;58.06;99541.13;5092580;28;794;-55
2021/09/12 02:31:28;;;;;;;;;;;;;;;14.10;57.97;99541.72;5092600;28;873;-55
2021/09/12 02:33:55;;;;;;;;;;;;;;;14.08;58.00;99533.03;5092465;28;874;-55
2021/09/12 02:36:21;;;;;;;;;;;;;;;14.04;58.16;99526.81;5092457;28;869;-52
2021/09/12 02:38:47;;;;;;;;;;;;;;;13.96;58.18;99522.63;5092320;28;881;-54
2021/09/12 02:41:14;;;;;;;;;;;;;;;14.15;58.29;99527.31;5092231;28;898;-55
2021/09/12 02:43:40;;;;;;;;;;;;;;;15.19;55.36;99533.00;5092221;28;858;-54
2021/09/12 02:46:07;;;;;;;;;;;;;;;16.15;52.55;99525.78;5092284;28;1950;-55
2021/09/12 02:48:34;;;;;;;;;;;;;;;16.84;50.37;99522.31;5092117;28;854;-56
2021/09/12 02:51:00;;;;;;;;;;;;;;;17.28;48.98;99513.16;5092242;28;842;-56
2021/09/12 02:53:26;;;;;;;;;;;;;;;17.58;48.29;99522.84;5092301;28;877;-56
2021/09/12 02:55:53;;;;;;;;;;;;;;;17.76;47.87;99522.91;5092349;28;1304;-56
2021/09/12 02:58:19;;;;;;;;;;;;;;;17.87;47.17;99516.94;5092352;28;850;-57
2021/09/12 03:00:46;;;;;;;;;;;;;;;18.03;46.62;99529.91;5091899;28;866;-56
2021/09/12 03:03:12;;;;;;;;;;;;;;;18.12;46.48;99526.34;5092031;28;815;-57
2021/09/12 03:05:39;;;;;;;;;;;;;;;18.18;46.11;99530.09;5073808;28;1944;-56
2021/09/12 03:08:06;;;;;;;;;;;;;;;18.24;45.77;99524.66;5091800;28;855;-57
2021/09/12 03:10:33;;;;;;;;;;;;;;;18.34;45.55;99535.41;5091755;28;806;-56
2021/09/12 03:12:59;;;;;;;;;;;;;;;18.44;45.22;99527.06;5091860;28;790;-57
2021/09/12 03:15:26;;;;;;;;;;;;;;;18.46;45.10;99535.78;5091739;28;909;-55
2021/09/12 03:17:52;;;;;;;;;;;;;;;18.52;44.77;99545.09;5091290;28;1355;-58
2021/09/12 03:20:19;;;;;;;;;;;;;;;18.65;44.59;99542.94;5091755;28;842;-57
2021/09/12 03:22:46;;;;;;;;;;;;;;;18.71;44.46;99540.28;5091745;28;937;-56
2021/09/12 03:25:13;;;;;;;;;;;;;;;18.74;44.30;99540.16;5091685;28;1985;-56
2021/09/12 03:27:40;;;;;;;;;;;;;;;18.84;43.94;99526.19;5056892;28;2387;-56
2021/09/12 03:30:07;;;;;;;;;;;;;;;18.93;43.50;99531.81;5091641;28;849;-56
2021/09/12 03:32:33;;;;;;;;;;;;;;;18.94;43.56;99531.31;5091482;28;842;-57
2021/09/12 03:35:00;;;;;;;;;;;;;;;18.92;43.50;99521.84;5091626;28;881;-56
2021/09/12 03:37:27;;;;;;;;;;;;;;;18.86;43.77;99523.69;5091777;28;826;-57
2021/09/12 03:39:54;;;;;;;;;;;;;;;18.81;43.78;99524.31;5091567;28;819;-57
2021/09/12 03:42:20;;;;;;;;;;;;;;;18.76;43.76;99523.69;5091447;28;930;-56
2021/09/12 03:44:47;;;;;;;;;;;;;;;18.77;43.67;99525.22;5091484;28;1957;-56
2021/09/12 03:47:13;;;;;;;;;;;;;;;18.77;43.74;99524.44;5091434;28;940;-56
2021/09/12 03:52:42;;;;;;;;;;;;;;;18.75;43.76;99521.34;5091341;28;612;-56
2021/09/12 03:55:09;;;;;;;;;;;;;;;18.72;43.53;99523.03;5091400;28;794;-55
2021/09/12 03:57:36;;;;;;;;;;;;;;;18.72;43.48;99516.69;5091398;28;807;-56
2021/09/12 04:00:04;;;;;;;;;;;;;;;18.68;43.72;99518.84;5091390;28;822;-54
2021/09/12 04:02:30;;;;;;;;;;;;;;;18.61;43.81;99522.72;5091455;28;918;-55
2021/09/12 04:04:56;;;;;;;;;;;;;;;18.54;44.00;99529.41;5091276;28;1959;-56
2021/09/12 04:07:23;;;;;;;;;;;;;;;18.51;44.14;99524.72;5091308;28;841;-56
2021/09/12 04:09:49;;;;;;;;;;;;;;;18.59;43.98;99532.84;5091263;28;818;-55
2021/09/12 04:12:16;;;;;;;;;;;;;;;18.67;43.79;99529.28;5091297;28;826;-54
2021/09/12 04:14:43;;;;;;;;;;;;;;;18.78;43.59;99531.66;5073019;28;1194;-56
2021/09/12 04:17:09;;;;;;;;;;;;;;;18.84;43.62;99532.59;5091580;28;1032;-56
2021/09/12 04:19:36;;;;;;;;;;;;;;;18.88;43.54;99535.22;5090993;28;1538;-56
2021/09/12 04:34:14;;;;;;;;;;;;;;;19.25;43.05;99543.63;5095482;28;636;-56
2021/09/12 04:36:41;;;;;;;;;;;;;;;19.29;43.13;99545.00;5095197;28;755;-56
2021/09/12 04:39:08;;;;;;;;;;;;;;;19.31;43.25;99539.72;5095017;28;845;-56
2021/09/12 04:41:36;;;;;;;;;;;;;;;19.37;43.46;99537.03;5094611;28;1038;-56
2021/09/12 04:44:03;;;;;;;;;;;;;;;19.44;43.41;99527.53;5094932;28;821;-56
2021/09/12 04:46:28;;;;;;;;;;;;;;;19.48;43.42;99530.94;5094662;28;1955;-56
2021/09/12 04:48:55;;;;;;;;;;;;;;;19.50;43.28;99534.06;5094432;28;846;-57
2021/09/12 04:51:23;;;;;;;;;;;;;;;19.57;43.16;99536.56;5094405;28;877;-55
2021/09/12 04:53:49;;;;;;;;;;;;;;;19.62;42.90;99533.09;5094940;28;829;-55
2021/09/12 04:56:16;;;;;;;;;;;;;;;19.69;42.75;99532.00;5094262;28;913;-54
2021/09/12 04:58:43;;;;;;;;;;;;;;;19.81;42.63;99533.09;5094225;28;894;-56
2021/09/12 05:01:09;;;;;;;;;;;;;;;19.93;42.49;99529.31;5094250;28;810;-54
2021/09/12 05:03:36;;;;;;;;;;;;;;;20.12;42.06;99527.16;5094212;28;881;-56
2021/09/12 05:06:02;;;;;;;;;;;;;;;20.28;41.53;99528.81;5094167;28;1992;-56
2021/09/12 05:16:42;;;;;;;;;;;;;;;20.67;40.87;99520.50;5584575;22;1678;-58
2021/09/12 05:19:10;;;;;;;;;;;;;;;20.81;40.74;99516.97;5094155;28;805;-58
2021/09/12 05:21:37;;;;;;;;;;;;;;;21.00;40.13;99523.19;5093964;28;817;-58
2021/09/12 05:24:04;;;;;;;;;;;;;;;21.11;40.20;99522.63;5094536;28;813;-58
2021/09/12 05:26:30;;;;;;;;;;;;;;;21.20;40.15;99523.31;5093998;28;1914;-58
2021/09/12 05:28:57;;;;;;;;;;;;;;;21.32;39.97;99521.50;5094035;28;853;-58
2021/09/12 05:31:24;;;;;;;;;;;;;;;21.58;39.18;99535.00;5093600;28;837;-58
2021/09/12 05:33:50;;;;;;;;;;;;;;;21.84;39.20;99537.22;5093623;28;877;-58
2021/09/12 05:36:20;;;;;;;;;;;;;;;22.02;38.69;99526.53;5093598;28;806;-59
2021/09/12 05:41:49;;;;;;;;;;;;;;;22.32;37.73;99528.50;5092446;28;632;-58
2021/09/12 05:44:16;;;;;;;;;;;;;;;22.41;38.06;99531.97;5093392;28;853;-58
2021/09/12 05:46:44;;;;;;;;;;;;;;;22.55;37.41;99526.75;5093261;28;1914;-58
2021/09/12 05:49:10;;;;;;;;;;;;;;;22.72;37.26;99524.94;5093237;28;851;-58
2021/09/12 05:51:37;;;;;;;;;;;;;;;22.97;37.12;99529.06;5093329;28;1007;-58
2021/09/12 06:06:18;;;;;;;;;;;;;;;23.62;35.94;99527.97;5093253;28;1958;-58
2021/09/12 06:08:44;;;;;;;;;;;;;;;23.80;35.43;99536.06;5092985;28;889;-58
2021/09/12 06:11:14;;;;;;;;;;;;;;;23.97;35.31;99533.38;5092986;28;849;-58
2021/09/12 06:13:54;;;;;;;;;;;;;;;24.25;34.95;99527.16;5092889;28;802;-58
2021/09/12 06:16:21;;;;;;;;;;;;;;;24.42;34.80;99530.09;5092715;28;1378;-58
2021/09/12 06:19:05;;;;;;;;;;;;;;;24.54;34.55;99523.25;5092736;28;857;-58
2021/09/12 06:21:32;;;;;;;;;;;;;;;24.65;33.88;99533.81;5092735;28;864;-58
2021/09/12 06:24:04;;;;;;;;;;;;;;;24.79;33.62;99537.72;5092675;28;858;-58
2021/09/12 06:26:32;;;;;;;;;;;;;;;24.82;33.51;99536.72;5092507;28;1956;-58
2021/09/12 06:28:58;;;;;;;;;;;;;;;24.97;33.45;99536.53;5092611;28;842;-58
2021/09/12 06:31:26;;;;;;;;;;;;;;;25.03;33.25;99538.06;5092634;28;806;-58
2021/09/12 06:37:09;;;;;;;;;;;;;;;25.61;33.13;99542.59;5092512;28;608;-58
2021/09/12 06:39:42;;;;;;;;;;;;;;;25.98;31.69;99544.41;5092365;28;878;-58
2021/09/12 06:42:09;;;;;;;;;;;;;;;26.11;31.60;99550.31;5074215;28;2328;-58
2021/09/12 06:44:36;;;;;;;;;;;;;;;26.32;31.49;99553.63;5092326;28;806;-58
2021/09/12 06:47:03;;;;;;;;;;;;;;;26.78;30.63;99555.06;5092372;28;1866;-59
2021/09/12 06:49:29;;;;;;;;;;;;;;;27.14;30.58;99546.66;5092475;28;834;-58
2021/09/12 06:51:56;;;;;;;;;;;;;;;27.26;29.63;99550.97;5091997;28;799;-58
2021/09/12 06:54:22;;;;;;;;;;;;;;;27.54;29.64;99554.94;5092345;28;893;-59
2021/09/12 06:56:48;;;;;;;;;;;;;;;27.74;29.25;99557.38;5092128;28;877;-58
2021/09/12 06:59:15;;;;;;;;;;;;;;;28.04;29.07;99553.78;5092317;28;913;-58
2021/09/12 07:01:41;;;;;;;;;;;;;;;28.15;28.61;99558.59;5091982;28;817;-58
2021/09/12 07:04:08;;;;;;;;;;;;;;;28.35;28.82;99560.97;5091935;28;834;-58
2021/09/12 07:06:35;;;;;;;;;;;;;;;28.71;27.55;99558.00;5091860;28;1885;-58
2021/09/12 07:09:02;;;;;;;;;;;;;;;28.67;28.06;99566.84;5091948;28;885;-58
2021/09/12 07:11:29;;;;;;;;;;;;;;;28.54;28.32;99565.97;5091907;28;989;-58
2021/09/12 07:13:55;;;;;;;;;;;;;;;28.99;27.61;99577.56;5091729;28;821;-58
2021/09/12 07:16:21;;;;;;;;;;;;;;;29.38;27.01;99564.13;5091689;28;1354;-58
2021/09/12 07:18:48;;;;;;;;;;;;;;;29.40;26.90;99565.13;5073683;28;1301;-59
2021/09/12 07:21:14;;;;;;;;;;;;;;;29.40;26.68;99565.13;5091769;28;825;-58
2021/09/12 07:23:41;;;;;;;;;;;;;;;29.61;26.58;99567.41;5091673;28;833;-58
2021/09/12 07:26:07;;;;;;;;;;;;;;;29.81;26.32;99563.25;5073573;28;1964;-58
2021/09/12 07:28:34;;;;;;;;;;;;;;;30.04;25.65;99570.13;5091665;28;797;-58
2021/09/12 07:31:00;;;;;;;;;;;;;;;30.25;25.76;99578.03;5091689;28;869;-58
2021/09/12 07:33:27;;;;;;;;;;;;;;;30.30;25.51;99575.13;5091574;28;898;-58
2021/09/12 07:35:53;;;;;;;;;;;;;;;30.52;25.73;99573.16;5091651;28;845;-58
2021/09/12 07:50:30;;;;;;;;;;;;;;;30.42;25.44;99574.91;5091894;28;676;-58
2021/09/12 07:52:57;;;;;;;;;;;;;;;30.63;24.83;99563.63;5091487;28;896;-58
2021/09/12 07:55:23;;;;;;;;;;;;;;;30.30;25.32;99565.81;5091443;28;842;-58
2021/09/12 07:57:50;;;;;;;;;;;;;;;30.27;25.85;99567.63;5091464;28;846;-58
2021/09/12 08:00:16;;;;;;;;;;;;;;;30.64;25.41;99571.63;5091353;28;841;-58
2021/09/12 08:02:42;;;;;;;;;;;;;;;30.93;25.14;99569.00;5091395;28;861;-58
2021/09/12 08:05:10;;;;;;;;;;;;;;;30.98;24.32;99562.38;5075978;28;1961;-58
2021/09/12 08:07:37;;;;;;;;;;;;;;;31.08;24.57;99568.41;5095284;28;889;-58
2021/09/12 08:10:04;;;;;;;;;;;;;;;30.79;24.98;99565.38;5095512;28;767;-58
2021/09/12 08:12:30;;;;;;;;;;;;;;;30.85;24.53;99557.44;5095493;28;840;-58
2021/09/12 08:14:57;;;;;;;;;;;;;;;31.02;24.62;99559.19;5095042;28;868;-58
2021/09/12 08:17:23;;;;;;;;;;;;;;;31.51;24.41;99550.06;5094769;28;1354;-58
2021/09/12 08:19:50;;;;;;;;;;;;;;;32.11;23.25;99556.94;5095162;28;969;-58
2021/09/12 08:22:17;;;;;;;;;;;;;;;32.33;23.19;99550.63;5095233;28;766;-58
2021/09/12 08:24:43;;;;;;;;;;;;;;;32.64;23.33;99538.63;5094944;28;818;-58
2021/09/12 08:27:10;;;;;;;;;;;;;;;31.94;22.99;99546.69;5094897;28;1906;-58
2021/09/12 08:29:37;;;;;;;;;;;;;;;31.34;24.02;99544.72;5094832;28;843;-58
2021/09/12 08:32:03;;;;;;;;;;;;;;;31.07;24.16;99552.63;5095026;28;830;-58
2021/09/12 08:34:30;;;;;;;;;;;;;;;30.96;24.07;99555.69;5094843;28;877;-58
2021/09/12 08:36:56;;;;;;;;;;;;;;;31.18;24.45;99546.66;5095063;28;806;-58
2021/09/12 08:39:23;;;;;;;;;;;;;;;31.58;23.86;99540.06;5094880;28;790;-58
2021/09/12 08:41:50;;;;;;;;;;;;;;;31.67;24.03;99537.50;5095083;28;881;-58
2021/09/12 08:44:17;;;;;;;;;;;;;;;31.56;23.96;99534.13;5094925;28;841;-58
2021/09/12 08:46:44;;;;;;;;;;;;;;;31.96;23.20;99531.81;5094970;28;1945;-59
2021/09/12 08:49:12;;;;;;;;;;;;;;;31.62;23.05;99529.03;5094747;28;856;-58
2021/09/12 08:51:39;;;;;;;;;;;;;;;31.27;23.46;99539.72;5094781;28;801;-58
2021/09/12 08:54:06;;;;;;;;;;;;;;;31.25;24.08;99525.22;5094593;28;873;-58
2021/09/12 09:08:52;;;;;;;;;;;;;;;30.95;23.88;99512.16;5094484;28;647;-58
2021/09/12 09:11:29;;;;;;;;;;;;;;;31.22;24.25;99512.06;5094313;28;817;-59
2021/09/12 09:14:12;;;;;;;;;;;;;;;31.24;24.41;99498.78;5093926;28;880;-58
2021/09/12 09:16:40;;;;;;;;;;;;;;;31.13;24.30;99510.44;5093593;28;1342;-58
2021/09/12 09:31:22;;;;;;;;;;;;;;;29.77;23.96;99500.16;5094109;28;627;-58
2021/09/12 09:33:49;;;;;;;;;;;;;;;29.48;24.52;99492.03;5093733;28;873;-58
2021/09/12 09:36:18;;;;;;;;;;;;;;;29.55;24.67;99493.47;5093562;28;889;-58
2021/09/12 09:38:46;;;;;;;;;;;;;;;29.58;24.71;99481.00;5093530;28;845;-58
2021/09/12 09:41:20;;;;;;;;;;;;;;;30.16;24.54;99484.41;5093410;28;794;-58
2021/09/12 09:43:54;;;;;;;;;;;;;;;30.92;23.82;99487.59;5094227;28;786;-58
2021/09/12 09:46:25;;;;;;;;;;;;;;;31.14;23.07;99484.19;5093361;28;1963;-58
2021/09/12 09:48:52;;;;;;;;;;;;;;;30.55;22.99;99483.66;5093443;28;786;-58
2021/09/12 09:51:21;;;;;;;;;;;;;;;30.35;23.63;99482.25;5093241;28;1175;-58
2021/09/12 09:53:48;;;;;;;;;;;;;;;30.54;23.30;99470.72;5093237;28;854;-59
2021/09/12 09:56:14;;;;;;;;;;;;;;;30.43;23.42;99482.38;5093406;28;818;-58
2021/09/12 09:58:43;;;;;;;;;;;;;;;30.62;22.79;99465.91;5093408;28;889;-58
2021/09/12 10:01:10;;;;;;;;;;;;;;;29.64;23.40;99469.53;5093185;28;869;-58
2021/09/12 10:03:37;;;;;;;;;;;;;;;28.59;24.88;99477.00;5093051;28;877;-58
2021/09/12 10:06:04;;;;;;;;;;;;;;;28.56;25.01;99476.00;5092998;28;1960;-58
2021/09/12 10:08:33;;;;;;;;;;;;;;;29.69;24.27;99480.06;5092995;28;881;-58
2021/09/12 10:11:02;;;;;;;;;;;;;;;30.50;23.23;99476.75;5074670;28;1318;-58
2021/09/12 10:13:30;;;;;;;;;;;;;;;30.71;23.43;99468.28;5093138;28;968;-57
2021/09/12 10:19:06;;;;;;;;;;;;;;;28.37;24.96;99463.81;5078757;28;1305;-57
2021/09/12 10:21:32;;;;;;;;;;;;;;;27.94;25.92;99476.69;5091858;28;826;-58
2021/09/12 10:24:00;;;;;;;;;;;;;;;29.00;25.05;99471.03;5091928;28;791;-58
2021/09/12 10:26:31;;;;;;;;;;;;;;;29.86;23.11;99463.47;5090916;28;1910;-58
2021/09/12 10:28:58;;;;;;;;;;;;;;;30.61;22.71;99470.06;5091785;28;924;-58
2021/09/12 10:31:27;;;;;;;;;;;;;;;30.99;21.97;99466.16;5092097;28;838;-58
2021/09/12 10:34:23;;;;;;;;;;;;;;;30.92;22.12;99456.97;5091994;28;830;-58
2021/09/12 10:36:50;;;;;;;;;;;;;;;31.29;22.65;99468.56;5074607;28;1415;-58
2021/09/12 10:39:32;;;;;;;;;;;;;;;31.75;21.14;99463.28;5091611;28;814;-58
2021/09/12 10:42:11;;;;;;;;;;;;;;;31.91;20.84;99470.63;5091485;28;861;-59
2021/09/12 10:44:38;;;;;;;;;;;;;;;30.77;22.21;99476.72;5091419;28;872;-58
2021/09/12 10:47:13;;;;;;;;;;;;;;;29.78;22.95;99468.25;5091420;28;1956;-58
2021/09/12 10:49:40;;;;;;;;;;;;;;;28.70;24.31;99469.09;5091430;28;894;-58
2021/09/12 10:52:10;;;;;;;;;;;;;;;27.98;24.75;99456.50;5091447;28;861;-58
2021/09/12 10:54:55;;;;;;;;;;;;;;;28.36;24.36;99462.25;5091378;28;845;-58
2021/09/12 10:57:21;;;;;;;;;;;;;;;29.73;22.75;99443.50;5091383;28;817;-58
2021/09/12 10:59:48;;;;;;;;;;;;;;;30.51;22.18;99461.19;5091358;28;905;-58
2021/09/12 11:02:17;;;;;;;;;;;;;;;29.90;22.94;99443.19;5091211;28;809;-58
2021/09/12 11:04:44;;;;;;;;;;;;;;;28.91;24.32;99448.66;5091242;28;904;-58
2021/09/12 11:07:10;;;;;;;;;;;;;;;28.82;25.04;99449.81;5091137;28;1953;-58
2021/09/12 11:09:37;;;;;;;;;;;;;;;29.85;23.25;99444.84;5091058;28;794;-58
2021/09/12 11:12:05;;;;;;;;;;;;;;;30.57;22.43;99451.75;5091213;28;834;-58
2021/09/12 11:14:33;;;;;;;;;;;;;;;31.01;22.18;99444.31;5091239;28;790;-58
2021/09/12 11:17:10;;;;;;;;;;;;;;;31.32;22.01;99445.38;5091365;28;918;-58
2021/09/12 11:19:38;;;;;;;;;;;;;;;31.51;21.66;99447.28;4985721;28;3002177;-58
2021/09/12 11:22:05;;;;;;;;;;;;;;;31.87;20.82;99435.19;5091748;28;838;-58
2021/09/12 11:24:31;;;;;;;;;;;;;;;32.40;20.67;99429.03;5091746;28;849;-58
2021/09/12 11:26:59;;;;;;;;;;;;;;;33.02;20.14;99432.88;5091760;28;1913;-58
2021/09/12 11:29:27;;;;;;;;;;;;;;;33.55;19.95;99422.84;5091853;28;868;-58
2021/09/12 11:31:55;;;;;;;;;;;;;;;33.46;19.77;99435.66;5091875;28;854;-59
2021/09/12 11:34:23;;;;;;;;;;;;;;;33.00;19.93;99432.69;5092061;28;787;-58
2021/09/12 11:36:51;;;;;;;;;;;;;;;31.86;21.18;99439.38;5091792;28;794;-58
2021/09/12 11:39:36;;;;;;;;;;;;;;;31.05;21.66;99421.16;5095271;28;865;-58
2021/09/12 11:42:04;;;;;;;;;;;;;;;30.62;22.82;99419.47;5077568;28;814;-58
2021/09/12 11:44:38;;;;;;;;;;;;;;;30.17;23.16;99421.19;5096075;28;754;-58
2021/09/12 11:47:10;;;;;;;;;;;;;;;29.73;24.21;99425.66;5095688;28;1889;-58
2021/09/12 11:49:37;;;;;;;;;;;;;;;29.24;24.57;99423.88;5095588;28;925;-58
2021/09/12 11:52:03;;;;;;;;;;;;;;;28.95;25.25;99423.50;5095614;28;786;-58
2021/09/12 11:54:36;;;;;;;;;;;;;;;28.79;25.51;99422.47;5095484;28;932;-58
2021/09/12 11:57:16;;;;;;;;;;;;;;;28.60;25.75;99422.47;5095533;28;928;-58
2021/09/12 11:59:46;;;;;;;;;;;;;;;28.45;26.34;99422.13;5095640;28;845;-58
2021/09/12 12:02:15;;;;;;;;;;;;;;;28.33;26.34;99412.97;5095409;28;798;-58
2021/09/12 12:04:43;;;;;;;;;;;;;;;28.22;26.46;99413.88;5095438;28;884;-58
2021/09/12 12:07:10;;;;;;;;;;;;;;;28.86;25.92;99409.69;5095228;28;1952;-58
2021/09/12 12:09:43;;;;;;;;;;;;;;;29.59;24.61;99404.91;5095232;28;806;-58
2021/09/12 12:12:14;;;;;;;;;;;;;;;29.92;24.16;99403.53;5095481;28;869;-59
2021/09/12 12:14:48;;;;;;;;;;;;;;;30.87;23.02;99391.47;5076942;28;1211;-58
2021/09/12 12:17:16;;;;;;;;;;;;;;;31.50;23.04;99403.69;5095464;28;1070;-59
2021/09/12 12:19:43;;;;;;;;;;;;;;;31.20;23.08;99387.03;5094863;28;1263;-59
2021/09/12 12:22:10;;;;;;;;;;;;;;;30.69;23.11;99387.44;5095016;28;849;-59
2021/09/12 12:24:38;;;;;;;;;;;;;;;30.30;23.46;99381.28;5095005;28;810;-59
2021/09/12 12:27:08;;;;;;;;;;;;;;;30.45;23.52;99372.16;5094894;28;1980;-58
2021/09/12 12:29:35;;;;;;;;;;;;;;;30.97;22.74;99363.22;5094797;28;1127;-59
2021/09/12 12:32:04;;;;;;;;;;;;;;;30.73;22.70;99368.66;5094869;28;842;-59
2021/09/12 12:34:39;;;;;;;;;;;;;;;30.40;23.57;99366.56;5095117;28;821;-59
2021/09/12 12:37:07;;;;;;;;;;;;;;;30.60;23.32;99368.72;5094769;28;861;-58
2021/09/12 12:39:33;;;;;;;;;;;;;;;30.76;23.21;99361.09;5094705;28;881;-58
2021/09/12 12:42:00;;;;;;;;;;;;;;;31.10;22.63;99363.91;5094636;28;871;-59
2021/09/12 12:44:27;;;;;;;;;;;;;;;31.91;21.09;99376.34;5094712;28;823;-59
2021/09/12 12:46:56;;;;;;;;;;;;;;;31.20;21.58;99374.84;5094577;28;1898;-59
2021/09/12 12:49:26;;;;;;;;;;;;;;;30.02;22.13;99370.47;5093882;28;821;-58
2021/09/12 12:52:09;;;;;;;;;;;;;;;29.15;22.59;99371.00;5094524;28;806;-58
2021/09/12 12:54:38;;;;;;;;;;;;;;;28.60;23.52;99368.44;5094454;28;867;-58
2021/09/12 12:57:08;;;;;;;;;;;;;;;28.23;23.27;99369.97;5094503;28;908;-58
2021/09/12 12:59:35;;;;;;;;;;;;;;;28.20;23.28;99368.19;5094286;28;901;-58
2021/09/12 13:02:02;;;;;;;;;;;;;;;28.10;24.41;99367.00;5094324;28;814;-58
2021/09/12 13:04:28;;;;;;;;;;;;;;;28.03;24.69;99361.94;5094301;28;814;-58
2021/09/12 13:06:55;;;;;;;;;;;;;;;28.01;24.99;99356.03;5094186;28;1975;-58
2021/09/12 13:09:22;;;;;;;;;;;;;;;28.52;24.62;99366.75;5094097;28;830;-58
2021/09/12 13:11:48;;;;;;;;;;;;;;;29.88;23.05;99358.28;5094195;28;813;-58
2021/09/12 13:14:15;;;;;;;;;;;;;;;31.18;21.71;99352.56;5094047;28;845;-59
2021/09/12 13:16:41;;;;;;;;;;;;;;;31.88;20.29;99348.16;5094333;28;939;-59
2021/09/12 13:19:08;;;;;;;;;;;;;;;32.01;19.99;99350.91;5093813;28;1221;-59
2021/09/12 13:21:34;;;;;;;;;;;;;;;31.68;20.83;99359.06;5093892;28;885;-59
2021/09/12 13:24:01;;;;;;;;;;;;;;;31.35;21.47;99352.16;5075808;28;941;-58
2021/09/12 13:26:27;;;;;;;;;;;;;;;31.78;21.18;99361.41;5093747;28;1913;-59
2021/09/12 13:31:56;;;;;;;;;;;;;;;31.79;20.15;99348.66;5093805;28;628;-59
2021/09/12 13:34:26;;;;;;;;;;;;;;;31.61;20.58;99342.63;5093681;28;826;-58
2021/09/12 13:36:53;;;;;;;;;;;;;;;31.57;20.36;99341.47;5093906;28;814;-59
2021/09/12 13:39:20;;;;;;;;;;;;;;;31.42;20.50;99333.53;5093785;28;806;-58
2021/09/12 13:41:47;;;;;;;;;;;;;;;31.33;20.79;99331.94;5093972;28;930;-58
2021/09/12 13:44:13;;;;;;;;;;;;;;;31.64;20.97;99335.78;5094191;28;833;-58
2021/09/12 13:46:40;;;;;;;;;;;;;;;31.97;20.10;99338.28;5094116;28;1937;-58
2021/09/12 13:49:06;;;;;;;;;;;;;;;31.90;19.93;99348.31;5093738;28;806;-59
2021/09/12 13:51:34;;;;;;;;;;;;;;;31.35;20.97;99340.72;5093628;28;822;-58
2021/09/12 14:06:12;;;;;;;;;;;;;;;29.77;22.13;99352.06;5093322;28;1901;-58
2021/09/12 14:08:39;;;;;;;;;;;;;;;29.15;22.97;99338.91;5092897;28;869;-58
2021/09/12 14:11:06;;;;;;;;;;;;;;;29.14;23.22;99343.84;5093191;28;795;-58
2021/09/12 14:13:32;;;;;;;;;;;;;;;29.31;22.69;99341.47;5092940;28;847;-58
2021/09/12 14:15:59;;;;;;;;;;;;;;;29.31;23.12;99349.25;5092921;28;907;-58
2021/09/12 14:18:26;;;;;;;;;;;;;;;29.35;23.04;99346.84;5092584;28;1228;-58
2021/09/12 14:20:52;;;;;;;;;;;;;;;29.46;22.83;99340.94;5092749;28;834;-58
2021/09/12 14:23:22;;;;;;;;;;;;;;;29.11;23.16;99339.25;5092982;28;846;-58
2021/09/12 14:25:49;;;;;;;;;;;;;;;28.40;23.89;99329.16;5092629;28;1922;-58
2021/09/12 14:28:16;;;;;;;;;;;;;;;27.89;24.54;99336.28;5092542;28;841;-58
2021/09/12 14:30:42;;;;;;;;;;;;;;;27.78;24.71;99327.09;5092603;28;834;-58
2021/09/12 14:33:09;;;;;;;;;;;;;;;28.22;24.14;99337.16;5092543;28;854;-58
2021/09/12 14:35:37;;;;;;;;;;;;;;;28.66;23.81;99337.88;5092460;28;861;-58
2021/09/12 14:38:03;;;;;;;;;;;;;;;29.04;23.71;99332.09;5092447;28;880;-58
2021/09/12 14:40:30;;;;;;;;;;;;;;;29.27;23.06;99326.78;5092411;28;824;-58
2021/09/12 14:42:56;;;;;;;;;;;;;;;29.38;22.93;99337.22;5092380;28;845;-58
2021/09/12 14:45:23;;;;;;;;;;;;;;;29.20;22.79;99329.53;5092219;28;1894;-58